createdAt,value
2018-11-14T00:00:28.014Z,11.03
2018-11-14T00:02:56.784Z,8.83
2018-11-14T00:05:25.179Z,10.77
2018-11-14T00:07:53.576Z,10.90
2018-11-14T00:10:21.992Z,9.63
2018-11-14T00:18:38.081Z,13.10
2018-11-14T00:21:06.532Z,9.87
2018-11-14T00:23:35.000Z,10.73
2018-11-14T00:26:03.636Z,10.63
2018-11-14T00:28:32.067Z,10.03
2018-11-14T00:31:02.711Z,10.20
2018-11-14T00:33:31.125Z,11.63
2018-11-14T00:35:59.571Z,11.47
2018-11-14T00:38:28.020Z,10.10
2018-11-14T00:40:56.427Z,9.93
2018-11-14T00:43:24.831Z,11.67
2018-11-14T00:45:53.303Z,10.30
2018-11-14T00:48:22.073Z,10.73
2018-11-14T00:50:50.488Z,9.53
2018-11-14T00:53:19.171Z,12.43
2018-11-14T00:55:47.570Z,12.47
2018-11-14T00:58:15.939Z,12.63
2018-11-14T01:00:44.371Z,11.03
2018-11-14T01:06:15.181Z,12.17
2018-11-14T01:08:43.673Z,8.90
2018-11-14T01:11:12.164Z,11.00
2018-11-14T01:13:40.807Z,11.67
2018-11-14T01:16:09.263Z,11.37
2018-11-14T01:18:37.672Z,9.70
2018-11-14T01:21:06.117Z,10.90
2018-11-14T01:23:34.540Z,12.03
2018-11-14T01:26:02.952Z,12.70
2018-11-14T01:28:31.627Z,9.03
2018-11-14T01:31:00.136Z,8.33
2018-11-14T01:33:28.532Z,8.37
2018-11-14T01:35:57.475Z,10.57
2018-11-14T01:38:26.180Z,8.90
2018-11-14T01:43:47.983Z,10.90
2018-11-14T01:46:16.427Z,8.13
2018-11-14T01:48:45.570Z,9.23
2018-11-14T01:51:14.014Z,15.47
2018-11-14T01:53:42.499Z,7.33
2018-11-14T01:56:10.900Z,10.40
2018-11-14T01:58:39.355Z,9.23
2018-11-14T02:01:08.711Z,9.53
2018-11-14T02:03:37.166Z,11.07
2018-11-14T02:06:06.320Z,8.77
2018-11-14T02:08:34.732Z,10.50
2018-11-14T02:11:03.536Z,7.37
2018-11-14T02:13:31.960Z,6.97
2018-11-14T02:16:00.376Z,9.47
2018-11-14T02:18:28.788Z,7.27
2018-11-14T02:20:57.196Z,9.97
2018-11-14T02:23:25.672Z,8.07
2018-11-14T02:25:54.064Z,6.93
2018-11-14T02:28:24.656Z,6.80
2018-11-14T02:30:53.164Z,6.50
2018-11-14T02:33:21.518Z,7.63
2018-11-14T02:35:52.204Z,8.00
2018-11-14T02:38:20.629Z,5.00
2018-11-14T02:40:49.123Z,7.17
2018-11-14T02:43:17.553Z,7.43
2018-11-14T02:45:45.989Z,9.63
2018-11-14T02:48:14.456Z,5.53
2018-11-14T02:50:47.321Z,7.73
2018-11-14T02:53:17.921Z,8.70
2018-11-14T02:55:51.732Z,7.73
2018-11-14T02:58:20.128Z,6.70
2018-11-14T03:00:48.519Z,8.10
2018-11-14T03:03:16.958Z,7.27
2018-11-14T03:05:45.589Z,7.07
2018-11-14T03:08:16.393Z,7.10
2018-11-14T03:10:44.820Z,7.73
2018-11-14T03:13:13.214Z,7.50
2018-11-14T03:15:44.807Z,6.40
2018-11-14T03:18:13.260Z,7.87
2018-11-14T03:20:42.206Z,4.40
2018-11-14T03:23:10.625Z,5.87
2018-11-14T03:25:41.353Z,7.63
2018-11-14T03:28:09.772Z,8.30
2018-11-14T03:30:38.221Z,7.13
2018-11-14T03:33:09.669Z,6.30
2018-11-14T03:35:43.329Z,6.83
2018-11-14T03:38:11.832Z,6.63
2018-11-14T03:40:45.873Z,6.67
2018-11-14T03:43:14.308Z,7.10
2018-11-14T03:45:42.835Z,6.33
2018-11-14T03:48:11.257Z,5.20
2018-11-14T03:50:39.687Z,6.60
2018-11-14T03:53:08.121Z,6.30
2018-11-14T03:55:36.577Z,4.83
2018-11-14T03:58:05.230Z,6.53
2018-11-14T04:00:34.240Z,6.63
2018-11-14T04:03:02.687Z,4.73
2018-11-14T04:05:54.174Z,5.53
2018-11-14T04:08:22.605Z,6.60
2018-11-14T04:10:51.027Z,8.33
2018-11-14T04:13:19.434Z,7.87
2018-11-14T04:15:48.876Z,6.33
2018-11-14T04:18:17.332Z,6.07
2018-11-14T04:20:45.825Z,6.23
2018-11-14T04:23:14.211Z,5.33
2018-11-14T04:25:42.921Z,6.40
2018-11-14T04:28:11.324Z,6.90
2018-11-14T04:30:39.766Z,5.47
2018-11-14T04:33:08.215Z,5.07
2018-11-14T04:35:37.275Z,5.47
2018-11-14T04:38:06.704Z,5.60
2018-11-14T04:40:35.171Z,6.13
2018-11-14T04:43:05.776Z,5.47
2018-11-14T04:45:34.240Z,5.20
2018-11-14T04:48:02.713Z,7.40
2018-11-14T04:50:31.059Z,8.43
2018-11-14T04:52:59.649Z,8.90
2018-11-14T04:55:28.062Z,5.57
2018-11-14T04:57:56.561Z,7.10
2018-11-14T05:00:25.986Z,4.23
2018-11-14T05:02:54.452Z,3.97
2018-11-14T05:05:24.240Z,4.50
2018-11-14T05:07:55.100Z,5.90
2018-11-14T05:10:24.751Z,7.57
2018-11-14T05:12:53.400Z,6.97
2018-11-14T05:15:22.875Z,6.13
2018-11-14T05:17:51.991Z,5.13
2018-11-14T05:20:20.952Z,8.27
2018-11-14T05:22:49.767Z,7.30
2018-11-14T05:25:18.673Z,6.93
2018-11-14T05:27:47.140Z,6.37
2018-11-14T05:30:23.911Z,8.53
2018-11-14T05:32:53.197Z,10.00
2018-11-14T05:35:23.655Z,9.13
2018-11-14T05:37:52.740Z,10.63
2018-11-14T05:40:22.613Z,9.80
2018-11-14T05:42:52.089Z,7.23
2018-11-14T05:45:23.624Z,9.20
2018-11-14T05:47:54.179Z,10.77
2018-11-14T05:50:23.559Z,11.40
2018-11-14T05:52:51.931Z,10.93
2018-11-14T05:55:20.427Z,11.40
2018-11-14T05:57:49.157Z,11.23
2018-11-14T06:03:14.577Z,11.90
2018-11-14T06:05:43.069Z,17.33
2018-11-14T06:08:11.516Z,13.57
2018-11-14T06:10:42.073Z,41.93
2018-11-14T06:13:11.003Z,20.63
2018-11-14T06:15:40.413Z,18.27
2018-11-14T06:18:08.843Z,13.53
2018-11-14T06:20:37.251Z,15.80
2018-11-14T06:23:05.750Z,13.07
2018-11-14T06:25:35.300Z,8.47
2018-11-14T06:28:05.691Z,10.60
2018-11-14T06:30:35.003Z,11.60
2018-11-14T06:33:04.463Z,12.30
2018-11-14T06:35:33.563Z,10.37
2018-11-14T06:40:59.068Z,15.93
2018-11-14T06:43:27.478Z,11.27
2018-11-14T06:45:55.955Z,8.93
2018-11-14T06:48:24.386Z,8.83
2018-11-14T06:50:52.784Z,8.40
2018-11-14T06:53:21.193Z,8.30
2018-11-14T06:55:49.655Z,9.23
2018-11-14T06:58:18.038Z,8.93
2018-11-14T07:00:46.477Z,7.67
2018-11-14T07:03:14.914Z,7.50
2018-11-14T07:05:43.480Z,9.70
2018-11-14T07:08:11.815Z,8.23
2018-11-14T07:10:40.300Z,8.23
2018-11-14T07:13:11.156Z,9.73
2018-11-14T07:15:40.255Z,11.63
2018-11-14T07:18:09.739Z,20.70
2018-11-14T07:20:39.970Z,11.00
2018-11-14T07:23:08.443Z,6.30
2018-11-14T07:25:37.145Z,6.10
2018-11-14T07:28:05.767Z,5.67
2018-11-14T07:30:34.790Z,6.63
2018-11-14T07:33:05.925Z,4.17
2018-11-14T07:35:35.131Z,17.53
2018-11-14T07:38:45.603Z,10.87
2018-11-14T07:41:15.349Z,6.73
2018-11-14T07:43:44.596Z,4.60
2018-11-14T07:46:13.946Z,7.90
2018-11-14T07:48:42.919Z,9.67
2018-11-14T07:51:11.403Z,4.00
2018-11-14T07:53:39.815Z,3.80
2018-11-14T07:56:08.937Z,5.83
2018-11-14T07:58:37.365Z,6.17
2018-11-14T08:01:06.311Z,11.47
2018-11-14T08:03:34.783Z,4.03
2018-11-14T08:06:23.354Z,3.70
2018-11-14T08:08:51.962Z,3.63
2018-11-14T08:11:20.419Z,3.90
2018-11-14T08:13:49.723Z,4.90
2018-11-14T08:16:29.364Z,3.80
2018-11-14T08:18:57.845Z,4.07
2018-11-14T08:21:27.135Z,6.10
2018-11-14T08:23:55.559Z,4.00
2018-11-14T08:26:26.137Z,3.73
2018-11-14T08:28:55.381Z,3.47
2018-11-14T08:31:23.800Z,4.17
2018-11-14T08:33:52.269Z,4.53
2018-11-14T08:36:21.236Z,2.83
2018-11-14T08:39:06.904Z,3.93
2018-11-14T08:41:35.407Z,14.70
2018-11-14T08:44:03.848Z,22.77
2018-11-14T08:46:32.247Z,10.57
2018-11-14T08:49:00.696Z,6.80
2018-11-14T08:51:31.172Z,11.97
2018-11-14T08:53:59.579Z,7.13
2018-11-14T08:56:29.802Z,5.47
2018-11-14T08:58:58.317Z,6.60
2018-11-14T09:01:27.789Z,4.67
2018-11-14T09:03:56.242Z,4.80
2018-11-14T09:06:24.782Z,7.20
2018-11-14T09:08:53.452Z,4.50
2018-11-14T09:11:22.035Z,4.10
2018-11-14T09:13:50.267Z,3.70
2018-11-14T09:16:18.732Z,8.10
2018-11-14T09:18:47.232Z,6.70
2018-11-14T09:21:18.887Z,6.33
2018-11-14T09:23:47.357Z,6.57
2018-11-14T09:26:16.568Z,7.37
2018-11-14T09:28:44.938Z,6.40
2018-11-14T09:31:13.414Z,8.00
2018-11-14T09:33:41.912Z,5.87
2018-11-14T09:36:12.836Z,5.70
2018-11-14T09:38:43.858Z,7.87
2018-11-14T09:41:12.300Z,6.17
2018-11-14T09:43:41.076Z,4.97
2018-11-14T09:46:09.465Z,7.23
2018-11-14T09:48:38.043Z,7.37
2018-11-14T09:51:06.349Z,8.07
2018-11-14T09:53:35.493Z,6.97
2018-11-14T09:56:04.175Z,7.33
2018-11-14T09:58:32.635Z,9.63
2018-11-14T10:01:01.035Z,9.67
2018-11-14T10:03:29.644Z,12.53
2018-11-14T10:08:56.838Z,8.97
2018-11-14T10:11:25.281Z,9.27
2018-11-14T10:13:53.770Z,8.33
2018-11-14T10:16:24.152Z,10.30
2018-11-14T10:18:52.546Z,11.20
2018-11-14T10:21:21.327Z,9.97
2018-11-14T10:23:49.754Z,10.63
2018-11-14T10:26:18.231Z,8.60
2018-11-14T10:43:02.880Z,8.87
2018-11-14T10:45:33.929Z,9.33
2018-11-14T10:48:02.424Z,9.57
2018-11-14T10:50:30.824Z,10.43
2018-11-14T10:52:59.241Z,9.40
2018-11-14T10:55:27.660Z,9.53
2018-11-14T10:57:56.040Z,9.47
2018-11-14T11:00:33.639Z,8.10
2018-11-14T11:03:08.311Z,14.67
2018-11-14T11:05:42.084Z,14.33
2018-11-14T11:08:16.093Z,7.47
2018-11-14T11:10:49.799Z,11.27
2018-11-14T11:13:23.484Z,8.27
2018-11-14T11:15:57.453Z,10.00
2018-11-14T11:18:28.552Z,8.43
2018-11-14T11:20:56.976Z,8.37
2018-11-14T11:23:25.456Z,9.87
2018-11-14T11:25:54.125Z,11.03
2018-11-14T11:28:23.606Z,10.17
2018-11-14T11:30:52.974Z,13.73
2018-11-14T11:33:21.356Z,10.03
2018-11-14T11:35:49.785Z,12.00
2018-11-14T11:38:18.685Z,9.27
2018-11-14T11:40:47.396Z,11.93
2018-11-14T11:43:15.772Z,11.97
2018-11-14T11:45:44.182Z,9.23
2018-11-14T11:48:12.624Z,8.10
2018-11-14T11:50:41.549Z,10.07
2018-11-14T11:53:09.984Z,8.93
2018-11-14T11:55:38.393Z,10.23
2018-11-14T11:58:06.884Z,9.60
2018-11-14T12:00:35.468Z,12.37
2018-11-14T12:03:03.692Z,11.80
2018-11-14T12:05:32.756Z,10.90
2018-11-14T12:08:01.178Z,11.53
2018-11-14T12:10:30.646Z,12.17
2018-11-14T12:12:59.036Z,9.73
2018-11-14T12:15:27.444Z,11.70
2018-11-14T12:17:55.954Z,9.63
2018-11-14T12:20:24.242Z,11.23
2018-11-14T12:22:53.235Z,11.83
2018-11-14T12:25:21.642Z,9.93
2018-11-14T12:27:50.086Z,11.70
2018-11-14T12:30:18.769Z,8.73
2018-11-14T12:32:47.118Z,8.67
2018-11-14T12:35:16.532Z,13.23
2018-11-14T12:37:45.040Z,11.13
2018-11-14T12:40:14.406Z,7.87
2018-11-14T12:42:42.808Z,9.57
2018-11-14T12:45:12.804Z,10.17
2018-11-14T12:47:41.393Z,7.97
2018-11-14T12:50:10.902Z,13.40
2018-11-14T12:52:39.614Z,11.20
2018-11-14T12:55:11.305Z,11.90
2018-11-14T12:57:39.894Z,12.67
2018-11-14T13:00:10.392Z,10.67
2018-11-14T13:02:39.438Z,13.13
2018-11-14T13:05:08.973Z,11.67
2018-11-14T13:07:37.709Z,14.40
2018-11-14T13:10:07.521Z,10.77
2018-11-14T13:12:36.847Z,18.67
2018-11-14T13:15:06.782Z,13.03
2018-11-14T13:17:35.604Z,14.03
2018-11-14T13:20:04.332Z,14.20
2018-11-14T13:22:32.716Z,15.97
2018-11-14T13:25:01.144Z,20.03
2018-11-14T13:27:29.612Z,15.90
2018-11-14T13:29:57.987Z,14.97
2018-11-14T13:32:26.441Z,15.47
2018-11-14T13:34:54.885Z,14.47
2018-11-14T13:37:23.322Z,13.07
2018-11-14T13:39:51.756Z,17.87
2018-11-14T13:42:20.188Z,15.23
2018-11-14T13:44:48.933Z,15.07
2018-11-14T13:47:17.581Z,12.70
2018-11-14T13:49:46.159Z,16.33
2018-11-14T13:52:14.548Z,16.03
2018-11-14T13:54:43.014Z,13.40
2018-11-14T13:57:11.495Z,13.50
2018-11-14T13:59:40.020Z,13.00
2018-11-14T14:02:08.621Z,17.70
2018-11-14T14:04:37.191Z,17.90
2018-11-14T14:07:06.002Z,17.43
2018-11-14T14:09:34.492Z,20.30
2018-11-14T14:12:02.872Z,18.37
2018-11-14T14:14:31.285Z,18.37
2018-11-14T14:16:59.789Z,16.37
2018-11-14T14:19:28.197Z,17.53
2018-11-14T14:21:56.590Z,17.47
2018-11-14T14:24:25.125Z,17.17
2018-11-14T14:26:53.500Z,17.43
2018-11-14T14:29:21.988Z,13.83
2018-11-14T14:31:50.497Z,15.30
2018-11-14T14:34:18.921Z,17.20
2018-11-14T14:36:47.844Z,17.57
2018-11-14T14:39:16.336Z,16.67
2018-11-14T14:41:44.785Z,16.53
2018-11-14T14:44:13.545Z,12.93
2018-11-14T14:46:48.782Z,14.37
2018-11-14T14:49:17.220Z,12.80
2018-11-14T14:51:45.712Z,12.47
2018-11-14T14:54:14.185Z,11.50
2018-11-14T14:56:42.661Z,15.03
2018-11-14T14:59:11.092Z,14.63
2018-11-14T15:01:39.597Z,14.10
2018-11-14T15:04:08.541Z,14.27
2018-11-14T15:06:36.938Z,13.77
2018-11-14T15:09:08.356Z,14.67
2018-11-14T15:11:36.791Z,14.63
2018-11-14T15:14:05.809Z,13.10
2018-11-14T15:16:34.197Z,13.60
2018-11-14T15:19:02.570Z,16.23
2018-11-14T15:21:31.020Z,15.50
2018-11-14T15:23:59.431Z,15.97
2018-11-14T15:26:27.864Z,13.80
2018-11-14T15:28:56.392Z,16.87
2018-11-14T15:31:24.729Z,14.90
2018-11-14T15:33:53.142Z,14.73
2018-11-14T15:36:21.816Z,16.13
2018-11-14T15:38:50.229Z,14.73
2018-11-14T15:41:18.616Z,12.67
2018-11-14T15:43:47.098Z,17.87
2018-11-14T15:46:15.529Z,17.27
2018-11-14T15:48:43.936Z,16.40
2018-11-14T15:51:12.448Z,15.53
2018-11-14T15:53:40.944Z,17.07
2018-11-14T15:56:09.396Z,17.77
2018-11-14T15:58:37.825Z,15.57
2018-11-14T16:01:06.389Z,17.53
2018-11-14T16:03:34.858Z,17.37
2018-11-14T16:06:03.308Z,16.83
2018-11-14T16:08:31.700Z,19.57
2018-11-14T16:11:00.131Z,18.53
2018-11-14T16:13:28.540Z,15.30
2018-11-14T16:15:57.061Z,17.13
2018-11-14T16:18:25.501Z,16.57
2018-11-14T16:20:53.880Z,17.57
2018-11-14T16:23:22.553Z,17.43
2018-11-14T16:25:51.057Z,13.93
2018-11-14T16:28:19.524Z,15.73
2018-11-14T16:30:47.964Z,17.80
2018-11-14T16:33:16.373Z,15.60
2018-11-14T16:35:44.839Z,13.50
2018-11-14T16:38:13.663Z,15.23
2018-11-14T16:40:42.123Z,17.77
2018-11-14T16:43:12.692Z,16.00
2018-11-14T16:45:41.379Z,15.93
2018-11-14T16:48:12.334Z,16.47
2018-11-14T16:50:40.797Z,17.77
2018-11-14T16:53:09.239Z,17.43
2018-11-14T16:55:37.717Z,18.63
2018-11-14T16:58:06.386Z,14.10
2018-11-14T17:00:34.861Z,17.27
2018-11-14T17:03:03.249Z,15.83
2018-11-14T17:05:32.445Z,14.50
2018-11-14T17:08:00.942Z,14.77
2018-11-14T17:10:29.385Z,17.37
2018-11-14T17:12:59.041Z,19.43
2018-11-14T17:15:27.868Z,16.00
2018-11-14T17:17:56.321Z,18.90
2018-11-14T17:20:26.735Z,18.27
2018-11-14T17:22:55.549Z,19.67
2018-11-14T17:25:24.060Z,14.57
2018-11-14T17:28:02.373Z,15.90
2018-11-14T17:30:31.664Z,15.77
2018-11-14T17:33:00.101Z,16.10
2018-11-14T17:35:28.557Z,48.17
2018-11-14T17:37:57.046Z,47.10
2018-11-14T17:40:26.925Z,17.53
2018-11-14T17:42:55.510Z,17.53
2018-11-14T17:45:25.512Z,14.53
2018-11-14T17:47:54.332Z,17.10
2018-11-14T17:50:24.243Z,16.27
2018-11-14T17:52:53.356Z,15.47
2018-11-14T17:55:22.725Z,11.70
2018-11-14T17:57:51.091Z,11.50
2018-11-14T18:00:23.680Z,11.37
2018-11-14T18:02:52.244Z,10.57
2018-11-14T18:05:22.819Z,11.33
2018-11-14T18:07:52.185Z,12.90
2018-11-14T18:10:22.881Z,11.87
2018-11-14T18:12:52.826Z,14.07
2018-11-14T18:15:21.528Z,10.77
2018-11-14T18:17:51.142Z,11.47
2018-11-14T18:20:21.092Z,11.40
2018-11-14T18:22:50.200Z,16.80
2018-11-14T18:25:22.494Z,16.63
2018-11-14T18:27:50.949Z,12.13
2018-11-14T18:30:24.861Z,16.47
2018-11-14T18:32:54.808Z,14.80
2018-11-14T18:35:24.134Z,12.40
2018-11-14T18:37:53.490Z,16.67
2018-11-14T18:40:23.284Z,23.73
2018-11-14T18:42:51.755Z,11.57
2018-11-14T18:45:34.810Z,16.10
2018-11-14T18:48:03.948Z,25.17
2018-11-14T18:50:32.404Z,43.10
2018-11-14T18:53:00.910Z,37.13
2018-11-14T18:55:30.838Z,16.53
2018-11-14T18:58:00.740Z,45.23
2018-11-14T19:00:30.524Z,18.43
2018-11-14T19:02:59.251Z,16.47
2018-11-14T19:05:28.135Z,20.70
2018-11-14T19:07:56.564Z,17.83
2018-11-14T19:10:48.576Z,17.17
2018-11-14T19:13:17.036Z,16.63
2018-11-14T19:15:45.600Z,17.47
2018-11-14T19:18:13.980Z,16.17
2018-11-14T19:20:42.384Z,15.90
2018-11-14T19:23:10.847Z,16.57
2018-11-14T19:25:39.327Z,16.63
2018-11-14T19:28:08.073Z,16.50
2018-11-14T19:30:37.497Z,26.33
2018-11-14T19:33:06.724Z,14.97
2018-11-14T19:35:37.372Z,16.00
2018-11-14T19:38:06.737Z,14.93
2018-11-14T19:40:36.741Z,13.80
2018-11-14T19:43:09.709Z,14.53
2018-11-14T19:45:39.176Z,14.57
2018-11-14T19:48:07.803Z,14.17
2018-11-14T19:50:36.594Z,15.37
2018-11-14T19:53:05.247Z,18.37
2018-11-14T19:55:34.453Z,15.10
2018-11-14T19:58:03.968Z,14.97
2018-11-14T20:00:33.488Z,16.57
2018-11-14T20:03:01.972Z,20.40
2018-11-14T20:05:30.820Z,12.67
2018-11-14T20:07:59.253Z,13.00
2018-11-14T20:10:29.786Z,11.10
2018-11-14T20:12:58.327Z,11.70
2018-11-14T20:15:28.338Z,12.10
2018-11-14T20:17:57.299Z,10.77
2018-11-14T20:20:26.954Z,10.90
2018-11-14T20:22:55.639Z,11.13
2018-11-14T20:25:24.540Z,12.53
2018-11-14T20:27:53.632Z,16.07
2018-11-14T20:30:25.415Z,12.73
2018-11-14T20:32:54.898Z,15.13
2018-11-14T20:35:24.544Z,15.07
2018-11-14T20:37:53.150Z,12.33
2018-11-14T20:40:22.335Z,11.93
2018-11-14T20:42:51.767Z,10.73
2018-11-14T20:45:21.556Z,15.80
2018-11-14T20:47:49.966Z,11.00
2018-11-14T20:50:20.696Z,13.23
2018-11-14T20:52:50.475Z,11.13
2018-11-14T20:55:19.083Z,15.43
2018-11-14T20:57:47.484Z,12.37
2018-11-14T21:00:21.528Z,9.60
2018-11-14T21:02:50.404Z,9.07
2018-11-14T21:05:18.822Z,18.13
2018-11-14T21:07:47.304Z,30.13
2018-11-14T21:10:28.612Z,11.17
2018-11-14T21:12:57.300Z,9.77
2018-11-14T21:15:27.220Z,10.80
2018-11-14T21:17:56.356Z,11.90
2018-11-14T21:20:41.164Z,9.23
2018-11-14T21:23:09.747Z,9.27
2018-11-14T21:25:38.139Z,13.80
2018-11-14T21:28:06.535Z,11.20
2018-11-14T21:30:34.945Z,11.90
2018-11-14T21:33:03.360Z,15.00
2018-11-14T21:35:33.253Z,13.20
2018-11-14T21:38:03.544Z,15.80
2018-11-14T21:40:32.035Z,8.97
2018-11-14T21:43:00.499Z,9.50
2018-11-14T21:45:29.503Z,8.53
2018-11-14T21:48:03.253Z,10.03
2018-11-14T21:50:32.382Z,8.37
2018-11-14T21:53:00.898Z,9.90
2018-11-14T21:55:29.340Z,11.50
2018-11-14T21:57:57.709Z,12.00
2018-11-14T22:00:31.580Z,12.00
2018-11-14T22:03:00.891Z,8.10
2018-11-14T22:11:22.080Z,8.30
2018-11-14T22:13:50.525Z,8.40
2018-11-14T22:16:18.882Z,7.10
2018-11-14T22:18:47.279Z,14.17
2018-11-14T22:21:15.890Z,8.17
2018-11-14T22:23:44.172Z,7.83
2018-11-14T22:26:12.869Z,11.03
2018-11-14T22:28:41.352Z,8.33
2018-11-14T22:37:07.379Z,7.37
2018-11-14T22:39:35.959Z,7.70
2018-11-14T22:42:04.307Z,7.23
2018-11-14T22:44:32.940Z,7.23
2018-11-14T22:47:01.305Z,7.50
2018-11-14T22:49:29.772Z,18.27
2018-11-14T22:51:58.951Z,7.60
2018-11-14T22:54:27.828Z,10.80
2018-11-14T22:56:56.272Z,11.63
2018-11-14T22:59:24.716Z,9.53
2018-11-14T23:01:53.047Z,9.23
2018-11-14T23:04:21.409Z,7.97
2018-11-14T23:06:49.805Z,7.50
2018-11-14T23:09:18.205Z,8.60
2018-11-14T23:11:46.589Z,10.33
2018-11-14T23:14:15.093Z,7.27
2018-11-14T23:16:43.571Z,11.20
2018-11-14T23:19:14.129Z,5.90
2018-11-14T23:21:42.509Z,15.60
2018-11-14T23:24:10.901Z,6.40
2018-11-14T23:26:39.405Z,9.17
2018-11-14T23:29:13.052Z,6.77
2018-11-14T23:31:41.424Z,7.83
2018-11-14T23:34:10.659Z,7.87
2018-11-14T23:36:39.056Z,19.23
2018-11-14T23:39:10.608Z,7.40
2018-11-14T23:41:39.072Z,5.30
2018-11-14T23:44:07.489Z,5.73
2018-11-14T23:46:38.089Z,5.37
2018-11-14T23:49:06.495Z,5.83
2018-11-14T23:51:34.910Z,5.60
2018-11-14T23:54:03.286Z,4.77
2018-11-14T23:56:31.677Z,5.20
2018-11-14T23:59:00.095Z,5.90
